CYAZ/YAZ METAR and TAF weather

Enter ICAO airport designator
Station Type Date Time Source
CYAZ METAR 2018/04/19 13:00 UTC NOAA

CYAZ 191300Z 02004KT 10SM SCT230 03/02 A3024 RMK CC4 VIA CYZT SLP241


Station Type Date Time Source
CYAZ Decoded METAR 2018/04/19 13:00 UTC NOAA

Tofino Airport, Canada (CYAZ) 49-05N 125-46W
Apr 19, 2018 - 09:00 AM EDT / 2018.04.19 1300 UTC
Wind: from the NNE (020 degrees) at 5 MPH (4 KT):0
Visibility: 10 mile(s):0
Sky conditions: partly cloudy
Temperature: 37 F (3 C)
Dew Point: 35 F (2 C)
Relative Humidity: 93%
Pressure (altimeter): 30.24 in. Hg (1024 hPa)
ob: CYAZ 191300Z 02004KT 10SM SCT230 03/02 A3024 RMK CC4 VIA CYZT SLP241
cycle: 13

Station Type Date Time Source
CYAZ TAF 2018/04/18 18:00 UTC NOAA

TAF CYAZ 181742Z 1818/1901 VRB03KT P6SM FEW120 SCT220
BECMG 1819/1821 28010KT
RMK NXT FCST WILL BE ISSUED AT 191445Z


Example: see airport list